Terminal Aerodrome Forecast
Issued by NWS Upton, NY

Home | Current Version | Previous Version | Text Only | Print | Product List | Glossary On
Versions: 1 2 3 4 5 6 7 8 9 10 11 12 13 14 15 16 17 18 19 20 21 22 23 24 25 26 27 28 29 30
000
FTUS41 KOKX 250528
TAFLGA
TAF
KLGA 250528Z 2506/2606 06012KT 6SM -RA SCT015 OVC040
      TEMPO 2507/2509 BKN015 BKN040
     FM250900 06016KT 6SM -RA BR BKN015 OVC050
     FM251100 06017G23KT 4SM -RA BR BKN007 OVC010
     FM251600 06024G30KT 1SM RA BR OVC006
     FM260000 06017KT 1SM -RA OVC004=

USA.gov is the U.S. government's official web portal to all federal, state and local government web resources and services.